createdAt,value
2018-03-01T00:01:18.760Z,91.60
2018-03-01T00:03:47.133Z,91.60
2018-03-01T00:06:15.496Z,91.70
2018-03-01T00:08:44.610Z,91.80
2018-03-01T00:11:12.972Z,91.80
2018-03-01T00:13:42.123Z,91.80
2018-03-01T00:16:10.492Z,91.80
2018-03-01T00:18:38.839Z,92.00
2018-03-01T00:21:07.217Z,91.70
2018-03-01T00:23:35.588Z,91.80
2018-03-01T00:26:04.696Z,91.80
2018-03-01T00:28:33.164Z,91.80
2018-03-01T00:31:02.412Z,91.80
2018-03-01T00:33:30.775Z,91.80
2018-03-01T00:35:59.139Z,91.80
2018-03-01T00:38:27.532Z,91.80
2018-03-01T00:40:55.891Z,91.90
2018-03-01T00:43:24.297Z,91.80
2018-03-01T00:45:52.666Z,91.80
2018-03-01T00:48:21.056Z,91.90
2018-03-01T00:50:49.548Z,92.10
2018-03-01T00:53:17.888Z,92.10
2018-03-01T00:55:46.252Z,92.00
2018-03-01T00:58:15.373Z,91.90
2018-03-01T01:00:43.843Z,92.30
2018-03-01T01:03:12.368Z,91.80
2018-03-01T01:05:40.804Z,91.90
2018-03-01T01:08:09.924Z,91.80
2018-03-01T01:10:38.264Z,91.80
2018-03-01T01:13:07.414Z,91.80
2018-03-01T01:15:35.764Z,91.80
2018-03-01T01:18:04.146Z,91.60
2018-03-01T01:20:32.505Z,91.80
2018-03-01T01:23:01.617Z,91.70
2018-03-01T01:25:29.981Z,91.70
2018-03-01T01:27:59.100Z,91.70
2018-03-01T01:30:27.498Z,91.70
2018-03-01T01:32:55.877Z,91.80
2018-03-01T01:35:24.211Z,91.80
2018-03-01T01:37:53.453Z,91.70
2018-03-01T01:40:21.827Z,91.70
2018-03-01T01:42:50.207Z,91.70
2018-03-01T01:45:18.549Z,91.60
2018-03-01T01:47:47.676Z,91.60
2018-03-01T01:50:16.033Z,91.60
2018-03-01T01:52:44.439Z,91.50
2018-03-01T01:55:12.819Z,91.50
2018-03-01T01:57:41.200Z,91.30
2018-03-01T02:00:09.616Z,91.20
2018-03-01T02:02:37.964Z,91.20
2018-03-01T02:05:06.349Z,91.40
2018-03-01T02:07:34.707Z,91.40
2018-03-01T02:10:03.051Z,91.60
2018-03-01T02:15:06.936Z,91.70
2018-03-01T02:17:35.315Z,91.60
2018-03-01T02:20:03.681Z,91.70
2018-03-01T02:22:32.023Z,91.80
2018-03-01T02:25:01.136Z,91.90
2018-03-01T02:27:30.361Z,91.90
2018-03-01T02:29:59.634Z,91.90
2018-03-01T02:32:28.853Z,92.00
2018-03-01T02:37:30.852Z,92.20
2018-03-01T02:39:59.225Z,92.20
2018-03-01T02:42:27.687Z,92.20
2018-03-01T02:44:56.043Z,92.40
2018-03-01T02:47:25.165Z,92.40
2018-03-01T02:49:53.535Z,92.40
2018-03-01T02:52:21.924Z,92.40
2018-03-01T02:54:50.313Z,92.40
2018-03-01T02:57:18.661Z,92.30
2018-03-01T02:59:47.802Z,92.40
2018-03-01T03:02:16.157Z,92.40
2018-03-01T03:04:44.509Z,92.50
2018-03-01T03:07:13.145Z,92.40
2018-03-01T03:09:41.504Z,92.50
2018-03-01T03:12:09.885Z,92.60
2018-03-01T03:14:38.233Z,92.60
2018-03-01T03:17:07.366Z,92.60
2018-03-01T03:19:35.713Z,92.60
2018-03-01T03:22:04.825Z,92.70
2018-03-01T03:24:33.180Z,92.70
2018-03-01T03:27:02.289Z,92.70
2018-03-01T03:29:31.417Z,92.60
2018-03-01T03:31:59.756Z,92.60
2018-03-01T03:34:28.872Z,92.60
2018-03-01T03:36:57.216Z,92.50
2018-03-01T03:39:25.581Z,92.70
2018-03-01T03:41:54.023Z,92.90
2018-03-01T03:44:22.622Z,92.80
2018-03-01T03:46:50.975Z,92.80
2018-03-01T03:49:19.319Z,92.80
2018-03-01T03:51:47.698Z,92.90
2018-03-01T03:54:16.063Z,93.00
2018-03-01T03:56:44.516Z,93.00
2018-03-01T03:59:13.073Z,93.00
2018-03-01T04:01:41.417Z,93.00
2018-03-01T04:04:09.769Z,93.00
2018-03-01T04:06:38.109Z,93.20
2018-03-01T04:09:06.459Z,93.30
2018-03-01T04:11:35.563Z,93.60
2018-03-01T04:14:03.937Z,93.40
2018-03-01T04:16:32.367Z,93.60
2018-03-01T04:19:00.944Z,93.50
2018-03-01T04:21:29.304Z,93.40
2018-03-01T04:23:57.649Z,93.50
2018-03-01T04:26:26.022Z,93.50
2018-03-01T04:28:54.450Z,93.40
2018-03-01T04:31:22.800Z,93.50
2018-03-01T04:33:51.915Z,93.60
2018-03-01T04:36:20.304Z,93.60
2018-03-01T04:38:48.758Z,93.90
2018-03-01T04:41:17.901Z,93.80
2018-03-01T04:43:46.468Z,93.80
2018-03-01T04:46:14.851Z,93.80
2018-03-01T04:48:43.193Z,93.60
2018-03-01T04:51:12.310Z,93.90
2018-03-01T04:53:40.666Z,93.60
2018-03-01T04:56:09.081Z,93.70
2018-03-01T04:58:37.427Z,93.50
2018-03-01T05:01:05.952Z,93.70
2018-03-01T05:03:34.292Z,93.70
2018-03-01T05:06:02.722Z,93.80
2018-03-01T05:08:31.060Z,93.90
2018-03-01T05:11:00.218Z,93.80
2018-03-01T05:13:28.575Z,93.80
2018-03-01T05:15:56.918Z,93.70
2018-03-01T05:18:26.140Z,93.80
2018-03-01T05:20:54.494Z,93.70
2018-03-01T05:23:23.628Z,93.90
2018-03-01T05:25:52.086Z,93.80
2018-03-01T05:28:20.477Z,94.00
2018-03-01T05:30:48.864Z,94.00
2018-03-01T05:33:17.449Z,93.90
2018-03-01T05:35:45.838Z,94.40
2018-03-01T05:38:14.193Z,94.00
2018-03-01T05:40:42.528Z,94.00
2018-03-01T05:43:11.018Z,94.00
2018-03-01T05:45:39.385Z,94.10
2018-03-01T05:48:08.545Z,95.10
2018-03-01T05:50:37.080Z,95.10
2018-03-01T05:53:05.454Z,95.80
2018-03-01T05:55:33.949Z,94.60
2018-03-01T05:58:03.063Z,93.90
2018-03-01T06:00:31.510Z,93.90
2018-03-01T06:02:59.978Z,93.80
2018-03-01T06:05:28.396Z,93.90
2018-03-01T06:07:56.779Z,94.20
2018-03-01T06:10:25.219Z,93.80
2018-03-01T06:12:53.640Z,93.90
2018-03-01T06:15:22.878Z,94.00
2018-03-01T06:17:51.316Z,94.00
2018-03-01T06:20:20.529Z,93.90
2018-03-01T06:22:49.472Z,93.80
2018-03-01T06:25:17.884Z,93.90
2018-03-01T06:27:46.354Z,93.90
2018-03-01T06:30:14.798Z,94.00
2018-03-01T06:32:43.236Z,94.10
2018-03-01T06:35:12.337Z,93.80
2018-03-01T06:37:40.717Z,93.80
2018-03-01T06:40:09.073Z,93.70
2018-03-01T06:42:38.230Z,93.40
2018-03-01T06:45:06.660Z,93.40
2018-03-01T06:47:35.798Z,93.80
2018-03-01T06:50:04.164Z,93.40
2018-03-01T06:52:32.514Z,93.40
2018-03-01T06:55:01.002Z,93.20
2018-03-01T06:57:30.251Z,93.10
2018-03-01T06:59:58.700Z,93.10
2018-03-01T07:02:27.140Z,92.80
2018-03-01T07:04:55.574Z,92.80
2018-03-01T07:07:23.999Z,92.50
2018-03-01T07:09:52.422Z,92.50
2018-03-01T07:12:20.765Z,92.50
2018-03-01T07:14:49.936Z,92.30
2018-03-01T07:17:18.384Z,92.30
2018-03-01T07:19:46.872Z,92.20
2018-03-01T07:22:15.281Z,91.90
2018-03-01T07:24:43.632Z,91.90
2018-03-01T07:27:12.023Z,92.00
2018-03-01T07:29:40.420Z,91.80
2018-03-01T07:32:08.804Z,91.70
2018-03-01T07:34:37.168Z,91.50
2018-03-01T07:37:05.544Z,91.50
2018-03-01T07:39:33.998Z,91.50
2018-03-01T07:42:02.363Z,91.50
2018-03-01T07:44:30.741Z,91.30
2018-03-01T07:46:59.116Z,91.30
2018-03-01T07:49:27.538Z,91.10
2018-03-01T07:51:55.972Z,91.00
2018-03-01T07:54:25.072Z,90.90
2018-03-01T07:56:54.213Z,91.00
2018-03-01T07:59:22.618Z,91.00
2018-03-01T08:01:50.974Z,90.70
2018-03-01T08:04:19.427Z,90.70
2018-03-01T08:06:47.807Z,90.70
2018-03-01T08:09:16.242Z,90.40
2018-03-01T08:11:44.701Z,90.30
2018-03-01T08:14:13.161Z,90.00
2018-03-01T08:16:41.630Z,90.00
2018-03-01T08:19:10.335Z,89.40
2018-03-01T08:21:38.730Z,88.90
2018-03-01T08:24:07.077Z,88.90
2018-03-01T08:26:35.526Z,88.70
2018-03-01T08:29:04.676Z,88.50
2018-03-01T08:31:33.046Z,88.40
2018-03-01T08:34:01.549Z,88.10
2018-03-01T08:36:29.923Z,88.30
2018-03-01T08:38:58.285Z,86.90
2018-03-01T08:41:26.645Z,86.00
2018-03-01T08:43:55.062Z,86.10
2018-03-01T08:46:23.410Z,85.70
2018-03-01T08:48:51.812Z,84.60
2018-03-01T08:51:20.263Z,83.90
2018-03-01T08:53:48.636Z,84.50
2018-03-01T08:56:17.127Z,83.00
2018-03-01T08:58:45.526Z,81.60
2018-03-01T09:01:13.917Z,81.20
2018-03-01T09:03:42.373Z,81.10
2018-03-01T09:06:10.820Z,81.20
2018-03-01T09:08:39.235Z,81.20
2018-03-01T09:11:07.593Z,81.40
2018-03-01T09:13:35.962Z,80.00
2018-03-01T09:16:05.078Z,79.90
2018-03-01T09:18:33.484Z,79.90
2018-03-01T09:21:01.833Z,80.30
2018-03-01T09:23:30.226Z,80.30
2018-03-01T09:25:58.656Z,80.80
2018-03-01T09:28:26.992Z,81.00
2018-03-01T09:30:55.429Z,81.90
2018-03-01T09:33:23.964Z,82.10
2018-03-01T09:35:52.437Z,83.30
2018-03-01T09:38:20.809Z,83.90
2018-03-01T09:40:49.263Z,84.20
2018-03-01T09:43:17.637Z,84.00
2018-03-01T09:45:46.742Z,84.30
2018-03-01T09:48:15.124Z,83.60
2018-03-01T09:50:44.236Z,83.50
2018-03-01T09:53:12.598Z,83.50
2018-03-01T09:55:41.730Z,82.20
2018-03-01T09:58:10.080Z,82.20
2018-03-01T10:00:38.483Z,82.30
2018-03-01T10:03:07.588Z,83.70
2018-03-01T10:05:36.026Z,82.90
2018-03-01T10:08:05.134Z,82.10
2018-03-01T10:10:33.568Z,82.10
2018-03-01T10:13:01.922Z,82.50
2018-03-01T10:15:30.605Z,81.50
2018-03-01T10:17:58.995Z,81.40
2018-03-01T10:20:27.375Z,82.20
2018-03-01T10:22:55.758Z,81.60
2018-03-01T10:25:24.191Z,81.30
2018-03-01T10:27:52.591Z,81.10
2018-03-01T10:30:21.097Z,81.00
2018-03-01T10:32:49.568Z,81.00
2018-03-01T10:35:18.065Z,80.80
2018-03-01T10:37:46.612Z,80.20
2018-03-01T10:40:15.125Z,80.70
2018-03-01T10:42:43.502Z,80.60
2018-03-01T10:45:11.860Z,78.40
2018-03-01T10:47:40.248Z,79.60
2018-03-01T10:50:08.622Z,80.50
2018-03-01T10:52:37.067Z,80.50
2018-03-01T10:55:06.302Z,79.10
2018-03-01T10:57:34.671Z,79.10
2018-03-01T11:00:03.143Z,78.90
2018-03-01T11:02:31.593Z,77.50
2018-03-01T11:05:00.057Z,78.30
2018-03-01T11:07:29.344Z,77.80
2018-03-01T11:09:57.709Z,77.80
2018-03-01T11:12:26.146Z,78.60
2018-03-01T11:14:54.488Z,77.90
2018-03-01T11:17:22.909Z,77.70
2018-03-01T11:19:52.064Z,76.10
2018-03-01T11:22:20.506Z,76.50
2018-03-01T11:24:49.726Z,67.00
2018-03-01T11:27:18.077Z,67.10
2018-03-01T11:29:47.189Z,60.00
2018-03-01T11:32:15.543Z,59.90
2018-03-01T11:34:44.030Z,56.50
2018-03-01T11:37:13.030Z,52.60
2018-03-01T11:39:42.137Z,50.00
2018-03-01T11:42:10.522Z,49.70
2018-03-01T11:44:38.862Z,49.80
2018-03-01T11:47:07.296Z,48.50
2018-03-01T11:49:35.769Z,44.80
2018-03-01T11:52:04.130Z,43.30
2018-03-01T11:54:32.485Z,41.40
2018-03-01T11:57:00.846Z,39.00
2018-03-01T11:59:29.203Z,38.50
2018-03-01T12:01:57.623Z,40.40
2018-03-01T12:04:26.739Z,41.30
2018-03-01T12:06:55.848Z,43.50
2018-03-01T12:09:24.309Z,43.40
2018-03-01T12:11:52.691Z,39.40
2018-03-01T12:14:21.049Z,40.30
2018-03-01T12:16:49.413Z,41.30
2018-03-01T12:19:17.895Z,40.10
2018-03-01T12:21:46.235Z,38.90
2018-03-01T12:24:14.938Z,39.10
2018-03-01T12:26:43.440Z,39.70
2018-03-01T12:29:11.829Z,38.10
2018-03-01T12:31:40.184Z,37.30
2018-03-01T12:34:08.576Z,37.30
2018-03-01T12:36:37.062Z,35.60
2018-03-01T12:39:05.393Z,36.60
2018-03-01T12:41:34.029Z,36.60
2018-03-01T12:44:02.375Z,38.70
2018-03-01T12:46:30.747Z,37.90
2018-03-01T12:48:59.138Z,39.20
2018-03-01T12:51:27.645Z,39.10
2018-03-01T12:53:55.996Z,38.30
2018-03-01T12:56:24.365Z,38.20
2018-03-01T12:58:52.718Z,37.60
2018-03-01T13:01:21.834Z,38.20
2018-03-01T13:03:50.341Z,38.10
2018-03-01T13:06:18.695Z,37.50
2018-03-01T13:08:47.106Z,37.90
2018-03-01T13:11:15.445Z,39.70
2018-03-01T13:13:43.875Z,40.40
2018-03-01T13:16:12.240Z,40.80
2018-03-01T13:18:40.571Z,40.80
2018-03-01T13:21:09.748Z,38.50
2018-03-01T13:23:38.183Z,38.40
2018-03-01T13:26:06.726Z,39.10
2018-03-01T13:28:35.144Z,39.60
2018-03-01T13:31:13.403Z,37.70
2018-03-01T13:36:39.877Z,34.80
2018-03-01T13:39:08.287Z,34.10
2018-03-01T13:41:36.741Z,34.20
2018-03-01T13:44:05.869Z,32.60
2018-03-01T13:46:39.854Z,32.60
2018-03-01T13:49:08.191Z,32.50
2018-03-01T13:51:36.674Z,31.80
2018-03-01T13:54:04.978Z,30.20
2018-03-01T13:56:34.081Z,30.50
2018-03-01T13:59:03.209Z,30.00
2018-03-01T14:01:31.597Z,29.90
2018-03-01T14:03:59.969Z,29.60
2018-03-01T14:06:47.247Z,29.30
2018-03-01T14:12:13.954Z,29.30
2018-03-01T14:14:42.338Z,29.30
2018-03-01T14:17:14.340Z,29.70
2018-03-01T14:22:46.206Z,29.90
2018-03-01T14:25:15.302Z,30.10
2018-03-01T14:30:40.676Z,30.10
2018-03-01T14:33:09.887Z,31.10
2018-03-01T14:35:38.274Z,31.10
2018-03-01T14:38:06.658Z,30.40
2018-03-01T14:40:34.997Z,30.00
2018-03-01T14:43:04.210Z,30.00
2018-03-01T14:45:33.310Z,30.10
2018-03-01T14:48:01.669Z,30.10
2018-03-01T14:50:30.016Z,31.00
2018-03-01T14:52:58.406Z,31.20
2018-03-01T14:55:26.761Z,30.90
2018-03-01T14:57:55.158Z,30.90
2018-03-01T15:00:23.610Z,30.80
2018-03-01T15:02:52.040Z,31.40
2018-03-01T15:05:21.199Z,31.70
2018-03-01T15:07:50.765Z,31.70
2018-03-01T15:10:19.168Z,31.00
2018-03-01T15:12:47.567Z,31.80
2018-03-01T15:15:16.001Z,31.90
2018-03-01T15:17:45.197Z,34.30
2018-03-01T15:20:14.521Z,36.00
2018-03-01T15:22:43.776Z,35.60
2018-03-01T15:25:12.140Z,35.60
2018-03-01T15:27:40.537Z,35.80
2018-03-01T15:30:08.892Z,36.70
2018-03-01T15:32:37.352Z,36.70
2018-03-01T15:35:05.742Z,38.40
2018-03-01T15:37:34.157Z,40.00
2018-03-01T15:40:03.467Z,44.80
2018-03-01T15:42:31.864Z,45.00
2018-03-01T15:45:00.245Z,47.20
2018-03-01T15:47:28.573Z,48.30
2018-03-01T15:49:56.906Z,52.20
2018-03-01T15:52:26.021Z,52.00
2018-03-01T15:54:54.381Z,52.10
2018-03-01T15:57:22.742Z,53.60
2018-03-01T15:59:51.867Z,55.10
2018-03-01T16:02:20.237Z,55.00
2018-03-01T16:04:49.345Z,56.00
2018-03-01T16:07:17.680Z,56.10
2018-03-01T16:09:46.071Z,57.90
2018-03-01T16:12:14.439Z,58.90
2018-03-01T16:14:42.881Z,59.20
2018-03-01T16:17:11.252Z,60.00
2018-03-01T16:19:39.788Z,62.00
2018-03-01T16:22:08.146Z,62.40
2018-03-01T16:24:36.758Z,61.60
2018-03-01T16:27:05.127Z,63.00
2018-03-01T16:29:33.728Z,63.90
2018-03-01T16:32:02.836Z,67.80
2018-03-01T16:34:31.242Z,67.70
2018-03-01T16:36:59.582Z,69.00
2018-03-01T16:39:27.956Z,71.00
2018-03-01T16:41:56.335Z,72.70
2018-03-01T16:44:24.755Z,74.10
2018-03-01T16:46:53.118Z,75.40
2018-03-01T16:49:21.472Z,76.80
2018-03-01T16:51:50.596Z,78.40
2018-03-01T16:54:18.979Z,78.30
2018-03-01T16:56:47.350Z,79.00
2018-03-01T16:59:16.485Z,80.70
2018-03-01T17:01:44.995Z,80.50
2018-03-01T17:04:13.364Z,81.10
2018-03-01T17:06:41.800Z,81.70
2018-03-01T17:09:10.159Z,82.40
2018-03-01T17:11:39.271Z,83.40
2018-03-01T17:14:07.612Z,83.40
2018-03-01T17:16:36.044Z,83.30
2018-03-01T17:19:04.415Z,83.70
2018-03-01T17:21:32.799Z,84.20
2018-03-01T17:24:01.229Z,84.50
2018-03-01T17:26:29.669Z,84.60
2018-03-01T17:28:58.037Z,84.90
2018-03-01T17:31:26.394Z,85.10
2018-03-01T17:33:55.521Z,86.20
2018-03-01T17:36:23.871Z,86.00
2018-03-01T17:38:52.987Z,86.00
2018-03-01T17:41:21.342Z,86.00
2018-03-01T17:43:49.698Z,86.00
2018-03-01T17:46:18.153Z,85.80
2018-03-01T17:48:46.477Z,85.90
2018-03-01T17:51:15.598Z,86.60
2018-03-01T17:53:43.972Z,86.60
2018-03-01T17:56:12.321Z,86.50
2018-03-01T17:58:40.772Z,86.70
2018-03-01T18:01:09.141Z,86.80
2018-03-01T18:03:37.485Z,86.80
2018-03-01T18:06:05.841Z,87.10
2018-03-01T18:08:34.961Z,87.30
2018-03-01T18:11:03.314Z,87.30
2018-03-01T18:13:32.434Z,87.80
2018-03-01T18:16:00.798Z,87.20
2018-03-01T18:18:29.921Z,87.50
2018-03-01T18:20:58.295Z,87.50
2018-03-01T18:23:26.615Z,87.80
2018-03-01T18:25:54.986Z,87.80
2018-03-01T18:28:23.364Z,88.10
2018-03-01T18:30:51.737Z,88.20
2018-03-01T18:33:20.258Z,88.30
2018-03-01T18:35:48.608Z,88.20
2018-03-01T18:38:17.008Z,88.40
2018-03-01T18:40:45.371Z,88.10
2018-03-01T18:43:13.727Z,88.10
2018-03-01T18:45:42.165Z,88.00
2018-03-01T18:48:11.273Z,88.70
2018-03-01T18:50:39.776Z,88.70
2018-03-01T18:53:08.165Z,88.50
2018-03-01T18:55:36.519Z,88.50
2018-03-01T18:58:04.902Z,88.60
2018-03-01T19:00:34.107Z,88.80
2018-03-01T19:03:02.464Z,88.80
2018-03-01T19:05:31.588Z,88.80
2018-03-01T19:08:00.468Z,88.80
2018-03-01T19:10:28.810Z,88.90
2018-03-01T19:12:57.235Z,89.10
2018-03-01T19:15:25.605Z,89.10
2018-03-01T19:17:54.093Z,88.70
2018-03-01T19:20:22.696Z,88.60
2018-03-01T19:22:51.936Z,88.60
2018-03-01T19:25:20.367Z,88.60
2018-03-01T19:27:48.706Z,88.70
2018-03-01T19:30:17.846Z,88.40
2018-03-01T19:32:46.260Z,88.40
2018-03-01T19:35:14.599Z,88.40
2018-03-01T19:37:43.060Z,88.20
2018-03-01T19:40:11.527Z,88.10
2018-03-01T19:42:39.883Z,88.40
2018-03-01T19:45:08.240Z,87.50
2018-03-01T19:47:36.614Z,87.20
2018-03-01T19:50:05.679Z,87.80
2018-03-01T19:52:34.024Z,87.70
2018-03-01T19:55:02.394Z,86.80
2018-03-01T19:57:30.771Z,86.80
2018-03-01T19:59:59.140Z,85.90
2018-03-01T20:02:27.484Z,86.10
2018-03-01T20:04:55.842Z,85.60
2018-03-01T20:07:24.966Z,84.70
2018-03-01T20:09:53.345Z,84.70
2018-03-01T20:12:21.696Z,84.20
2018-03-01T20:14:50.131Z,84.50
2018-03-01T20:17:18.585Z,84.90
2018-03-01T20:19:46.930Z,84.70
2018-03-01T20:22:16.039Z,84.60
2018-03-01T20:24:44.451Z,84.50
2018-03-01T20:27:12.819Z,84.30
2018-03-01T20:29:41.415Z,84.20
2018-03-01T20:32:09.732Z,84.40
2018-03-01T20:34:38.110Z,84.70
2018-03-01T20:37:06.468Z,84.90
2018-03-01T20:39:35.306Z,84.90
2018-03-01T20:42:04.418Z,84.70
2018-03-01T20:44:32.799Z,84.70
2018-03-01T20:47:01.296Z,84.90
2018-03-01T20:49:29.638Z,84.60
2018-03-01T20:51:59.614Z,85.10
2018-03-01T20:54:27.963Z,85.10
2018-03-01T20:56:56.319Z,85.20
2018-03-01T20:59:25.453Z,85.30
2018-03-01T21:01:53.784Z,85.30
2018-03-01T21:04:22.921Z,85.70
2018-03-01T21:06:51.290Z,85.60
2018-03-01T21:09:19.647Z,85.80
2018-03-01T21:11:48.015Z,88.60
2018-03-01T21:14:17.159Z,87.00
2018-03-01T21:16:45.500Z,86.90
2018-03-01T21:19:13.894Z,86.80
2018-03-01T21:21:42.293Z,87.00
2018-03-01T21:24:10.757Z,87.10
2018-03-01T21:26:39.116Z,86.80
2018-03-01T21:29:08.657Z,87.00
2018-03-01T21:31:37.342Z,87.00
2018-03-01T21:34:05.719Z,86.80
2018-03-01T21:36:34.075Z,87.10
2018-03-01T21:39:02.447Z,87.00
2018-03-01T21:41:31.556Z,87.50
2018-03-01T21:43:59.932Z,87.40
2018-03-01T21:46:28.269Z,87.40
2018-03-01T21:48:56.631Z,87.50
2018-03-01T21:51:25.012Z,87.70
2018-03-01T21:53:53.415Z,88.30
2018-03-01T21:56:21.760Z,88.40
2018-03-01T21:58:50.115Z,88.80
2018-03-01T22:01:18.461Z,88.40
2018-03-01T22:03:47.574Z,88.80
2018-03-01T22:06:16.720Z,89.10
2018-03-01T22:08:45.069Z,89.10
2018-03-01T22:11:13.428Z,88.90
2018-03-01T22:13:42.556Z,88.90
2018-03-01T22:16:10.906Z,88.90
2018-03-01T22:18:39.273Z,88.70
2018-03-01T22:21:08.402Z,89.40
2018-03-01T22:23:37.065Z,89.40
2018-03-01T22:26:05.491Z,89.20
2018-03-01T22:28:33.844Z,89.30
2018-03-01T22:31:02.195Z,89.00
2018-03-01T22:33:31.307Z,89.30
2018-03-01T22:35:59.742Z,89.20
2018-03-01T22:38:28.180Z,89.40
2018-03-01T22:40:56.971Z,89.70
2018-03-01T22:43:25.350Z,89.80
2018-03-01T22:45:53.695Z,89.90
2018-03-01T22:48:22.076Z,90.00
2018-03-01T22:50:51.193Z,90.00
2018-03-01T22:53:19.578Z,90.00
2018-03-01T22:55:48.529Z,90.10
2018-03-01T22:58:16.882Z,90.00
2018-03-01T23:00:53.936Z,90.20
2018-03-01T23:03:22.370Z,90.10
2018-03-01T23:05:50.737Z,90.20
2018-03-01T23:08:19.075Z,90.00
2018-03-01T23:10:47.434Z,90.10
2018-03-01T23:13:15.810Z,90.10
2018-03-01T23:15:44.470Z,90.30
2018-03-01T23:18:12.816Z,90.30
2018-03-01T23:20:41.179Z,90.20
2018-03-01T23:23:09.536Z,90.20
2018-03-01T23:25:38.044Z,90.30
2018-03-01T23:28:06.388Z,90.40
2018-03-01T23:30:34.881Z,90.30
2018-03-01T23:33:03.229Z,90.40
2018-03-01T23:35:31.592Z,90.40
2018-03-01T23:38:00.029Z,90.40
2018-03-01T23:40:28.516Z,90.50
2018-03-01T23:42:56.930Z,90.40
2018-03-01T23:45:25.271Z,90.40
2018-03-01T23:47:53.645Z,90.50
2018-03-01T23:50:22.644Z,90.70
2018-03-01T23:52:51.225Z,90.80
2018-03-01T23:55:19.574Z,90.80
2018-03-01T23:57:47.948Z,90.90
